Grove, Maine
Current Conditions -  °F | °C
As of 2:35 PM on Thursday 27 Nov 2014 (Local Time) from KBHB Reporting Station
Overcast Overcast  
Wind Chill: 25°   Ceiling: 2500
Heat Index: 32°   Visibility: 10mi
Dew Point: 30°   Wind: 8mph
Humidity: 93%   Direction: 330°NNW
Pressure: 29.92"   Gusts: NA
Location:  45°N, 67.4328°W
Report Text: KBHB 271935Z AUTO 33007KT 10SM OVC025 00/M01 A2992 RMK AO1
Loading
Personal Weather Stations






























Interactive Weather Map New forecast layout! Learn more

10-Day Weather Forecast

Advertisements
Track Severe Weather on mobile